Time;durP1;ratioP1;P1;durP2;ratioP2;P2;SDS_P1;SDS_P2;PMS_P1;PMS_P2;Temp;Humidity;BMP_temperature;BMP_pressure;BME280_temperature;BME280_humidity;BME280_pressure;Samples;Min_cycle;Max_cycle;Signal;HPM_P1;HPM_P2
2023/10/16 00:01:09;;;;;;;3.07;2.13;;;5.90;99.90;;;;;;5048337;28;20229;-79
2023/10/16 00:03:38;;;;;;;3.53;2.10;;;5.90;99.90;;;;;;5056385;28;20217;-78
2023/10/16 00:06:06;;;;;;;5.80;2.00;;;5.90;99.90;;;;;;5056789;28;20206;-78
2023/10/16 00:08:34;;;;;;;8.80;2.10;;;5.80;99.90;;;;;;5045921;28;20228;-79
2023/10/16 00:11:03;;;;;;;4.87;2.00;;;5.90;99.90;;;;;;5044332;28;20224;-79
2023/10/16 00:13:35;;;;;;;4.83;2.20;;;5.80;99.90;;;;;;5052459;28;20245;-79
2023/10/16 00:16:03;;;;;;;7.67;2.67;;;5.80;99.90;;;;;;5045350;28;20650;-78
2023/10/16 00:18:33;;;;;;;5.60;1.97;;;5.80;99.90;;;;;;5041377;28;20252;-78
2023/10/16 00:21:04;;;;;;;4.60;2.40;;;5.80;99.90;;;;;;5047522;28;20317;-78
2023/10/16 00:23:37;;;;;;;8.50;2.87;;;5.70;99.90;;;;;;5055619;28;20207;-78
2023/10/16 00:26:06;;;;;;;6.63;2.13;;;5.70;99.90;;;;;;5053479;28;20262;-79
2023/10/16 00:28:35;;;;;;;6.07;2.70;;;5.80;99.90;;;;;;5053642;28;20257;-79
2023/10/16 00:31:03;;;;;;;6.83;2.17;;;5.80;99.90;;;;;;5054926;28;20302;-79
2023/10/16 00:33:31;;;;;;;4.63;2.80;;;5.80;99.90;;;;;;5054298;28;20231;-78
2023/10/16 00:36:00;;;;;;;4.10;2.37;;;5.80;99.90;;;;;;5056492;28;20289;-79
2023/10/16 00:38:26;;;;;;;6.57;2.37;;;5.80;99.90;;;;;;5052621;28;20210;-78
2023/10/16 00:41:10;;;;;;;3.90;2.30;;;5.80;99.90;;;;;;5055391;28;20211;-79
2023/10/16 00:43:40;;;;;;;3.47;1.87;;;5.70;99.90;;;;;;5049711;28;20612;-78
2023/10/16 00:46:09;;;;;;;7.60;2.17;;;5.70;99.90;;;;;;5051980;28;20203;-79
2023/10/16 00:48:37;;;;;;;4.20;1.90;;;5.70;99.90;;;;;;5044175;28;20307;-78
2023/10/16 00:51:08;;;;;;;5.23;2.20;;;5.70;99.90;;;;;;5050039;28;20223;-78
2023/10/16 00:53:36;;;;;;;4.13;2.20;;;5.70;99.90;;;;;;5055295;28;20274;-79
2023/10/16 00:56:08;;;;;;;5.13;2.23;;;5.60;99.90;;;;;;5055430;28;20211;-79
2023/10/16 00:58:34;;;;;;;7.77;2.70;;;5.70;99.90;;;;;;5047566;28;20677;-79
2023/10/16 01:01:05;;;;;;;3.67;2.00;;;5.70;99.90;;;;;;5052980;28;20685;-79
2023/10/16 01:03:34;;;;;;;12.10;2.50;;;5.70;99.90;;;;;;5041138;28;20327;-78
2023/10/16 01:06:02;;;;;;;6.50;2.33;;;5.80;99.90;;;;;;5046538;28;20195;-79
2023/10/16 01:08:28;;;;;;;3.07;2.10;;;5.80;99.90;;;;;;5053332;28;20640;-79
2023/10/16 01:10:57;;;;;;;2.37;1.50;;;5.80;99.90;;;;;;5048581;28;20222;-79
2023/10/16 01:13:26;;;;;;;3.70;2.10;;;5.90;99.90;;;;;;5047017;28;20214;-80
2023/10/16 01:15:56;;;;;;;6.90;2.57;;;5.90;99.90;;;;;;5046114;28;20227;-78
2023/10/16 01:18:24;;;;;;;4.27;2.13;;;6.00;99.90;;;;;;5041072;28;20232;-78
2023/10/16 01:20:51;;;;;;;4.53;2.40;;;6.00;99.90;;;;;;5047265;28;20199;-78
2023/10/16 01:23:20;;;;;;;4.30;2.50;;;5.90;99.90;;;;;;5048970;28;20322;-79
2023/10/16 01:25:49;;;;;;;6.60;2.20;;;5.90;99.90;;;;;;5053759;28;20195;-78
2023/10/16 01:28:16;;;;;;;7.40;2.23;;;5.90;99.90;;;;;;5051742;28;20203;-78
2023/10/16 01:30:45;;;;;;;6.47;2.60;;;6.00;99.90;;;;;;5054001;28;20219;-79
2023/10/16 01:33:12;;;;;;;4.93;2.37;;;6.00;99.90;;;;;;5051206;28;20207;-79
2023/10/16 01:35:39;;;;;;;5.27;2.23;;;6.00;99.90;;;;;;5046588;28;20290;-79
2023/10/16 01:38:14;;;;;;;8.47;1.93;;;6.10;99.90;;;;;;5050928;28;20268;-78
2023/10/16 01:40:47;;;;;;;4.97;2.00;;;6.10;99.90;;;;;;5047302;28;20213;-79
2023/10/16 01:43:14;;;;;;;5.33;2.00;;;6.20;99.90;;;;;;5054777;28;20203;-78
2023/10/16 01:45:50;;;;;;;4.33;2.03;;;6.30;99.90;;;;;;5052346;28;20281;-79
2023/10/16 01:48:20;;;;;;;7.23;3.17;;;6.40;99.90;;;;;;5038315;28;20211;-79
2023/10/16 01:50:49;;;;;;;2.77;1.57;;;6.50;99.90;;;;;;5041946;28;20239;-79
2023/10/16 01:53:20;;;;;;;5.93;2.47;;;6.40;99.90;;;;;;5043808;28;20203;-79
2023/10/16 01:55:54;;;;;;;4.63;2.00;;;6.30;99.90;;;;;;5052561;28;20673;-79
2023/10/16 01:58:22;;;;;;;3.80;1.60;;;6.20;99.90;;;;;;5053823;28;20601;-79
2023/10/16 02:00:49;;;;;;;3.20;1.70;;;6.20;99.90;;;;;;5038493;28;20676;-79
2023/10/16 02:03:17;;;;;;;5.27;1.77;;;6.10;99.90;;;;;;5054556;28;20740;-79
2023/10/16 02:05:45;;;;;;;8.43;2.00;;;6.10;99.90;;;;;;5050925;28;20201;-79
2023/10/16 02:08:13;;;;;;;6.70;1.93;;;6.00;99.90;;;;;;5038956;28;20676;-79
2023/10/16 02:10:40;;;;;;;1.93;1.70;;;6.00;99.90;;;;;;5034290;28;20227;-79
2023/10/16 02:13:09;;;;;;;5.53;1.77;;;6.00;99.90;;;;;;5050042;28;20203;-79
2023/10/16 02:15:38;;;;;;;4.33;1.77;;;6.00;99.90;;;;;;5051144;28;20211;-79
2023/10/16 02:18:06;;;;;;;2.40;1.80;;;5.90;99.90;;;;;;5041990;28;20207;-79
2023/10/16 02:20:36;;;;;;;5.37;1.80;;;5.90;99.90;;;;;;5054298;28;20223;-79
2023/10/16 02:23:06;;;;;;;4.67;1.97;;;5.90;99.90;;;;;;5054551;28;20213;-79
2023/10/16 02:25:34;;;;;;;4.43;1.83;;;5.80;99.90;;;;;;5047236;28;20306;-79
2023/10/16 02:28:02;;;;;;;5.17;2.33;;;5.80;99.90;;;;;;5043751;28;20200;-79
2023/10/16 02:30:35;;;;;;;3.87;2.40;;;5.80;99.90;;;;;;5052174;28;20223;-79
2023/10/16 02:33:12;;;;;;;2.77;1.70;;;5.80;99.90;;;;;;5055156;28;20207;-78
2023/10/16 02:35:42;;;;;;;4.17;1.83;;;5.70;99.90;;;;;;5051354;28;20207;-79
2023/10/16 02:38:12;;;;;;;6.93;2.40;;;5.70;99.90;;;;;;5049882;28;20295;-79
2023/10/16 02:40:39;;;;;;;5.10;3.17;;;5.70;99.90;;;;;;5051669;28;20219;-78
2023/10/16 02:43:13;;;;;;;10.97;4.93;;;5.60;99.90;;;;;;5051883;28;20210;-77
2023/10/16 02:45:46;;;;;;;4.53;2.50;;;5.60;99.90;;;;;;5042416;28;20230;-77
2023/10/16 02:48:16;;;;;;;4.90;2.03;;;5.60;99.90;;;;;;5046009;28;20195;-77
2023/10/16 02:50:49;;;;;;;6.47;2.40;;;5.60;99.90;;;;;;5050626;28;20217;-78
2023/10/16 02:53:21;;;;;;;6.70;2.30;;;5.50;99.90;;;;;;5044626;28;20277;-77
2023/10/16 02:55:52;;;;;;;5.50;2.13;;;5.50;99.90;;;;;;5048456;28;20219;-78
2023/10/16 02:58:22;;;;;;;4.00;1.70;;;5.50;99.90;;;;;;5048908;28;20695;-77
2023/10/16 03:00:53;;;;;;;8.10;2.63;;;5.40;99.90;;;;;;5042535;28;20199;-77
2023/10/16 03:03:20;;;;;;;5.80;2.20;;;5.40;99.90;;;;;;5041302;28;20196;-77
2023/10/16 03:05:49;;;;;;;5.07;2.10;;;5.40;99.90;;;;;;5044113;28;20206;-76
2023/10/16 03:08:18;;;;;;;8.23;2.67;;;5.40;99.90;;;;;;5052592;28;20195;-78
2023/10/16 03:10:45;;;;;;;5.53;2.50;;;5.40;99.90;;;;;;5056441;28;20635;-77
2023/10/16 03:13:14;;;;;;;6.60;3.17;;;5.30;99.90;;;;;;5044184;28;20223;-77
2023/10/16 03:15:45;;;;;;;5.43;2.50;;;5.30;99.90;;;;;;5049935;28;20561;-79
2023/10/16 03:18:17;;;;;;;7.87;3.17;;;5.30;99.90;;;;;;5044467;28;20200;-77
2023/10/16 03:20:45;;;;;;;5.20;2.67;;;5.30;99.90;;;;;;5049517;28;20234;-77
2023/10/16 03:23:14;;;;;;;5.40;2.80;;;5.20;99.90;;;;;;5048916;28;20203;-77
2023/10/16 03:25:53;;;;;;;5.60;2.73;;;5.20;99.90;;;;;;5053343;28;20218;-78
2023/10/16 03:28:20;;;;;;;8.50;3.00;;;5.20;99.90;;;;;;5049251;28;20199;-78
2023/10/16 03:30:47;;;;;;;6.87;3.20;;;5.20;99.90;;;;;;5054846;28;20568;-79
2023/10/16 03:33:15;;;;;;;7.87;4.47;;;5.20;99.90;;;;;;5048976;28;20228;-78
2023/10/16 03:35:45;;;;;;;5.07;3.00;;;6.40;99.90;;;;;;5047474;28;20630;-80
2023/10/16 03:38:24;;;;;;;6.40;2.97;;;5.90;99.90;;;;;;5047641;28;20677;-78
2023/10/16 03:40:51;;;;;;;6.63;3.03;;;5.20;99.90;;;;;;5049506;28;20207;-79
2023/10/16 03:43:20;;;;;;;6.80;3.17;;;5.20;99.90;;;;;;5057991;28;20260;-78
2023/10/16 03:45:46;;;;;;;5.27;3.97;;;5.30;99.90;;;;;;5054028;28;20212;-78
2023/10/16 03:48:16;;;;;;;5.50;3.30;;;5.30;99.90;;;;;;5045808;28;20216;-78
2023/10/16 03:50:44;;;;;;;7.30;3.17;;;5.20;99.90;;;;;;5041901;28;20211;-79
2023/10/16 03:53:13;;;;;;;5.47;3.70;;;5.30;99.90;;;;;;5057179;28;20219;-79
2023/10/16 03:55:44;;;;;;;6.43;3.33;;;5.20;99.90;;;;;;5057414;28;20199;-79
2023/10/16 03:58:12;;;;;;;10.13;3.90;;;5.20;99.90;;;;;;5057269;28;20199;-79
2023/10/16 04:00:50;;;;;;;6.43;3.50;;;5.10;99.90;;;;;;5054373;28;20629;-79
2023/10/16 04:03:19;;;;;;;4.80;3.93;;;5.20;99.90;;;;;;5057607;28;20200;-78
2023/10/16 04:05:47;;;;;;;8.60;3.60;;;5.20;99.90;;;;;;5048780;28;20298;-78
2023/10/16 04:08:14;;;;;;;7.97;3.80;;;5.30;99.90;;;;;;5049513;28;20666;-78
2023/10/16 04:10:46;;;;;;;9.53;3.87;;;5.10;99.90;;;;;;5040558;28;20207;-78
2023/10/16 04:13:14;;;;;;;10.17;3.97;;;5.10;99.90;;;;;;5050522;28;20215;-78
2023/10/16 04:18:30;;;;;;;11.00;4.83;;;5.20;99.90;;;;;;5045993;28;20210;-78
2023/10/16 04:21:37;;;;;;;8.50;4.00;;;5.30;99.90;;;;;;5055807;28;20207;-78
2023/10/16 04:23:58;;;;;;;9.63;3.70;;;5.40;99.90;;;;;;5050988;28;20203;-78
2023/10/16 04:26:29;;;;;;;7.03;3.77;;;5.50;99.90;;;;;;5048648;28;20204;-78
2023/10/16 04:31:55;;;;;;;9.43;4.07;;;5.60;99.90;;;;;;5050121;28;20280;-78
2023/10/16 04:34:31;;;;;;;8.73;4.20;;;5.70;99.90;;;;;;5050064;28;20641;-79
2023/10/16 04:45:28;;;;;;;7.47;4.40;;;5.80;99.90;;;;;;5053202;28;20691;-78
2023/10/16 04:48:07;;;;;;;11.40;4.13;;;5.90;99.90;;;;;;5042036;28;20256;-78
2023/10/16 04:50:40;;;;;;;7.27;4.47;;;5.90;99.90;;;;;;5047388;28;20249;-78
2023/10/16 04:53:08;;;;;;;8.23;4.33;;;5.90;99.90;;;;;;5047863;28;20785;-78
2023/10/16 04:56:04;;;;;;;6.97;4.10;;;5.90;99.90;;;;;;5051855;28;20207;-78
2023/10/16 04:58:39;;;;;;;7.93;4.73;;;5.90;99.90;;;;;;5054725;28;20207;-79
2023/10/16 05:06:49;;;;;;;7.23;4.13;;;6.00;99.90;;;;;;5051049;28;20207;-78
2023/10/16 05:17:59;;;;;;;10.63;5.57;;;6.10;99.90;;;;;;5043847;28;20579;-78
2023/10/16 06:15:20;;;;;;;10.63;4.50;;;6.60;99.90;;;;;;5047838;28;20604;-78
2023/10/16 06:17:47;;;;;;;9.40;5.20;;;6.60;99.90;;;;;;5044294;28;20202;-78
2023/10/16 06:20:20;;;;;;;9.27;4.87;;;6.70;99.90;;;;;;5053028;28;20258;-78
2023/10/16 06:22:51;;;;;;;12.93;6.03;;;6.70;99.90;;;;;;5045610;28;20213;-78
2023/10/16 06:25:19;;;;;;;9.23;4.93;;;6.70;99.90;;;;;;5045470;28;20211;-78
2023/10/16 06:27:48;;;;;;;11.03;5.37;;;6.80;99.90;;;;;;5042500;28;20219;-78
2023/10/16 06:30:18;;;;;;;9.60;5.03;;;6.80;99.90;;;;;;5040929;28;20227;-78
2023/10/16 06:32:49;;;;;;;8.80;5.00;;;6.80;99.90;;;;;;5049544;28;20234;-78
2023/10/16 06:35:18;;;;;;;11.37;5.20;;;6.90;99.90;;;;;;5044108;28;20203;-78
2023/10/16 06:37:51;;;;;;;9.97;4.90;;;6.90;99.90;;;;;;5038964;28;20218;-78
2023/10/16 06:40:24;;;;;;;10.03;5.43;;;6.90;99.90;;;;;;5040213;28;20234;-78
2023/10/16 06:43:09;;;;;;;9.20;5.43;;;7.00;99.90;;;;;;5045244;28;20207;-78
2023/10/16 06:45:41;;;;;;;9.07;4.73;;;7.10;99.90;;;;;;5047325;28;20878;-78
2023/10/16 06:48:14;;;;;;;10.50;5.67;;;7.10;99.90;;;;;;5047086;28;20653;-78
2023/10/16 06:50:45;;;;;;;9.77;5.20;;;7.10;99.90;;;;;;5044266;28;20258;-78
2023/10/16 06:53:12;;;;;;;9.73;5.57;;;7.20;99.90;;;;;;5049560;28;20238;-78
2023/10/16 06:55:40;;;;;;;9.13;5.40;;;7.20;99.90;;;;;;5053742;28;20662;-78
2023/10/16 06:58:08;;;;;;;9.27;5.20;;;7.20;99.90;;;;;;5050061;28;20206;-78
2023/10/16 07:00:38;;;;;;;11.50;5.17;;;7.40;99.90;;;;;;5052419;28;20233;-78
2023/10/16 07:03:09;;;;;;;9.83;5.00;;;7.30;99.90;;;;;;5041423;28;20195;-78
2023/10/16 07:05:45;;;;;;;10.80;5.40;;;7.30;99.90;;;;;;5052541;28;20211;-78
2023/10/16 07:08:16;;;;;;;9.30;5.73;;;7.40;99.90;;;;;;5041812;28;20203;-78
2023/10/16 07:10:48;;;;;;;9.50;5.20;;;7.30;99.90;;;;;;5047227;28;20633;-78
2023/10/16 07:13:26;;;;;;;10.83;5.47;;;7.40;99.90;;;;;;5046547;28;20702;-78
2023/10/16 07:15:56;;;;;;;9.00;5.20;;;7.40;99.90;;;;;;5050271;28;20688;-78
2023/10/16 07:18:24;;;;;;;12.13;5.30;;;7.50;99.90;;;;;;5052401;28;20222;-78
2023/10/16 07:20:59;;;;;;;8.27;4.97;;;7.60;99.90;;;;;;5040839;28;20214;-78
2023/10/16 07:23:29;;;;;;;8.07;4.93;;;7.80;99.90;;;;;;5055836;28;20198;-78
2023/10/16 07:25:57;;;;;;;10.83;5.43;;;7.80;99.90;;;;;;5055868;28;20210;-78
2023/10/16 07:28:29;;;;;;;13.23;6.57;;;7.80;99.90;;;;;;5053919;28;20577;-78
2023/10/16 07:30:57;;;;;;;16.70;8.47;;;8.00;99.90;;;;;;5055467;28;20293;-78
2023/10/16 07:33:25;;;;;;;8.97;4.80;;;8.10;99.90;;;;;;5054693;28;20227;-78
2023/10/16 07:35:54;;;;;;;8.97;3.80;;;8.10;99.90;;;;;;5051271;28;20656;-78
2023/10/16 07:38:22;;;;;;;8.57;4.03;;;8.10;99.90;;;;;;5036902;28;20207;-78
2023/10/16 07:40:51;;;;;;;9.27;4.00;;;8.00;99.90;;;;;;5055763;28;20207;-78
2023/10/16 07:43:18;;;;;;;6.27;4.17;;;8.00;99.90;;;;;;5047849;28;20298;-78
2023/10/16 07:45:47;;;;;;;7.47;4.57;;;8.20;99.90;;;;;;5044051;28;20215;-78
2023/10/16 07:48:21;;;;;;;5.40;4.20;;;8.10;99.90;;;;;;5051293;28;20298;-78
2023/10/16 07:50:51;;;;;;;9.43;5.53;;;8.20;99.90;;;;;;5047707;28;20240;-78
2023/10/16 07:53:18;;;;;;;8.43;4.67;;;8.30;99.90;;;;;;5047425;28;20309;-78
2023/10/16 07:55:51;;;;;;;6.67;4.50;;;8.20;99.90;;;;;;5050195;28;20298;-78
2023/10/16 07:58:23;;;;;;;8.67;4.70;;;8.30;99.90;;;;;;5047163;28;20681;-78
2023/10/16 08:01:17;;;;;;;6.73;3.90;;;8.60;99.90;;;;;;5035925;28;20323;-78
2023/10/16 08:03:46;;;;;;;8.50;4.30;;;8.50;99.90;;;;;;5046104;28;20234;-78
2023/10/16 08:06:17;;;;;;;7.47;4.67;;;8.30;99.90;;;;;;5051840;28;20202;-77
2023/10/16 08:08:48;;;;;;;6.97;4.47;;;8.30;99.90;;;;;;5040251;28;20313;-78
2023/10/16 08:11:18;;;;;;;6.83;4.73;;;8.50;99.90;;;;;;5045393;28;20551;-78
2023/10/16 08:13:47;;;;;;;10.70;5.00;;;8.70;99.90;;;;;;5044879;28;20220;-78
2023/10/16 08:16:18;;;;;;;8.03;4.33;;;8.60;99.90;;;;;;5042708;28;20207;-78
2023/10/16 08:18:48;;;;;;;7.80;5.00;;;8.50;99.90;;;;;;5038788;28;20600;-79
2023/10/16 08:21:25;;;;;;;10.17;5.37;;;8.50;99.90;;;;;;5046509;28;20200;-78
2023/10/16 08:23:55;;;;;;;9.13;5.03;;;8.40;99.90;;;;;;5048602;28;20597;-79
2023/10/16 08:26:29;;;;;;;8.03;5.00;;;8.50;99.90;;;;;;5043879;28;20341;-78
2023/10/16 08:28:57;;;;;;;11.90;5.40;;;8.60;99.90;;;;;;5045533;28;20233;-78
2023/10/16 08:31:25;;;;;;;9.63;5.53;;;8.80;99.90;;;;;;5051984;28;20201;-78
2023/10/16 08:33:54;;;;;;;8.70;5.40;;;8.80;99.90;;;;;;5039844;28;20231;-78
2023/10/16 08:36:21;;;;;;;8.13;5.43;;;8.80;99.90;;;;;;5054581;28;20260;-79
2023/10/16 08:38:53;;;;;;;9.47;5.10;;;8.70;99.90;;;;;;5050960;28;20701;-78
2023/10/16 08:41:32;;;;;;;9.57;5.03;;;8.70;99.90;;;;;;5037726;28;20226;-78
2023/10/16 08:44:04;;;;;;;7.87;4.73;;;8.90;99.90;;;;;;5043163;28;20203;-78
2023/10/16 08:46:34;;;;;;;11.73;5.67;;;9.00;99.90;;;;;;5051433;28;20567;-78
2023/10/16 08:49:02;;;;;;;10.97;5.87;;;9.20;99.90;;;;;;5040406;28;20234;-78
2023/10/16 08:51:29;;;;;;;9.37;5.80;;;9.20;99.90;;;;;;5046203;28;20219;-78
2023/10/16 08:54:01;;;;;;;10.33;5.70;;;9.20;99.90;;;;;;5049142;28;20258;-78
2023/10/16 08:56:28;;;;;;;8.83;5.00;;;9.30;99.90;;;;;;5051705;28;20206;-78
2023/10/16 08:58:57;;;;;;;8.37;5.00;;;9.50;99.90;;;;;;5047198;28;20226;-78
2023/10/16 09:01:28;;;;;;;13.63;5.60;;;9.70;99.90;;;;;;5036980;28;20214;-78
2023/10/16 09:04:05;;;;;;;8.70;4.90;;;9.80;99.90;;;;;;5053200;28;20210;-78
2023/10/16 09:06:36;;;;;;;11.53;4.80;;;10.00;99.90;;;;;;5050170;28;20745;-78
2023/10/16 09:09:11;;;;;;;8.80;4.83;;;10.00;99.90;;;;;;5047574;28;20591;-78
2023/10/16 09:11:39;;;;;;;11.40;5.03;;;10.10;99.90;;;;;;5045335;28;20602;-78
2023/10/16 09:14:07;;;;;;;10.30;5.20;;;10.00;99.90;;;;;;5045291;28;20254;-78
2023/10/16 09:16:34;;;;;;;10.53;4.67;;;10.20;99.90;;;;;;5049509;28;20206;-78
2023/10/16 09:19:07;;;;;;;10.10;5.43;;;10.20;99.90;;;;;;5050634;28;20226;-78
2023/10/16 09:21:38;;;;;;;8.33;5.10;;;10.20;99.90;;;;;;5047128;28;20203;-78
2023/10/16 09:24:07;;;;;;;8.63;4.73;;;10.30;99.90;;;;;;5036649;28;20207;-78
2023/10/16 09:26:38;;;;;;;8.77;4.63;;;10.20;99.90;;;;;;5050213;28;20575;-78
2023/10/16 09:29:14;;;;;;;8.93;4.47;;;10.20;99.90;;;;;;5042761;28;20226;-78
2023/10/16 09:31:43;;;;;;;7.73;4.67;;;10.20;99.90;;;;;;5042963;28;20207;-78
2023/10/16 09:34:13;;;;;;;8.93;4.20;;;10.20;99.90;;;;;;5049868;28;20223;-78
2023/10/16 09:36:41;;;;;;;8.03;4.10;;;10.10;99.90;;;;;;5037122;28;20628;-78
2023/10/16 09:39:17;;;;;;;7.00;3.97;;;10.10;99.90;;;;;;5044722;28;20231;-78
2023/10/16 09:41:46;;;;;;;8.43;3.80;;;10.40;99.90;;;;;;5043830;28;20564;-78
2023/10/16 09:44:23;;;;;;;5.40;4.07;;;10.60;99.90;;;;;;5042570;28;20199;-78
2023/10/16 09:46:53;;;;;;;5.23;3.70;;;10.90;99.90;;;;;;5047213;28;20210;-78
2023/10/16 09:49:21;;;;;;;4.07;2.90;;;11.50;99.90;;;;;;5036712;28;20732;-78
2023/10/16 09:51:50;;;;;;;4.60;3.03;;;11.60;99.90;;;;;;5045308;28;20288;-78
2023/10/16 09:54:21;;;;;;;6.80;3.30;;;11.60;99.90;;;;;;5045415;28;20300;-78
2023/10/16 09:56:52;;;;;;;4.23;2.97;;;11.40;99.90;;;;;;5045067;28;20207;-78
2023/10/16 09:59:26;;;;;;;5.30;3.67;;;10.90;99.90;;;;;;5052321;28;20233;-78
2023/10/16 10:01:55;;;;;;;4.33;3.17;;;10.90;99.90;;;;;;5036868;28;20203;-78
2023/10/16 10:04:25;;;;;;;6.20;3.10;;;11.00;99.90;;;;;;5050425;28;20199;-78
2023/10/16 10:06:57;;;;;;;3.53;2.80;;;11.60;99.90;;;;;;5045464;28;20199;-78
2023/10/16 10:09:41;;;;;;;4.60;3.37;;;11.90;99.90;;;;;;5045654;28;20236;-79
2023/10/16 10:12:22;;;;;;;9.33;3.30;;;11.60;99.90;;;;;;5044972;28;20203;-78
2023/10/16 10:15:04;;;;;;;5.30;3.23;;;11.60;99.90;;;;;;5046578;28;20226;-78
2023/10/16 10:17:33;;;;;;;4.47;2.93;;;12.00;99.90;;;;;;5043468;28;20217;-78
2023/10/16 10:20:08;;;;;;;5.03;2.90;;;11.90;99.90;;;;;;5046909;28;20230;-79
2023/10/16 10:22:37;;;;;;;4.90;3.37;;;12.30;99.90;;;;;;5050633;28;20575;-78
2023/10/16 10:25:16;;;;;;;4.77;2.90;;;12.00;99.90;;;;;;5036595;28;20200;-78
2023/10/16 10:27:44;;;;;;;4.63;2.80;;;11.60;99.90;;;;;;5040704;28;20570;-78
2023/10/16 10:30:17;;;;;;;6.17;2.63;;;11.30;99.90;;;;;;5048697;28;20577;-78
2023/10/16 10:32:45;;;;;;;4.13;2.30;;;11.00;99.90;;;;;;5045272;28;20245;-79
2023/10/16 10:35:26;;;;;;;6.90;2.53;;;10.90;99.90;;;;;;5044725;28;20203;-78
2023/10/16 10:38:17;;;;;;;2.60;2.40;;;10.90;99.90;;;;;;5050463;28;20209;-78
2023/10/16 10:41:17;;;;;;;5.20;2.00;;;11.60;99.90;;;;;;5041210;28;20208;-78
2023/10/16 10:43:47;;;;;;;2.67;2.40;;;12.00;99.90;;;;;;5047983;28;20210;-78
2023/10/16 10:46:23;;;;;;;4.87;2.00;;;12.50;99.90;;;;;;5049689;28;20199;-78
2023/10/16 10:48:50;;;;;;;3.17;1.80;;;12.30;99.90;;;;;;5045849;28;20226;-79
2023/10/16 10:51:19;;;;;;;1.87;1.77;;;12.20;99.90;;;;;;5051830;28;20219;-79
2023/10/16 10:53:54;;;;;;;4.73;2.10;;;11.90;99.90;;;;;;5037066;28;20226;-78
2023/10/16 10:56:21;;;;;;;3.67;1.80;;;11.90;99.90;;;;;;5052267;28;20635;-78
2023/10/16 10:58:48;;;;;;;2.53;1.87;;;11.70;99.90;;;;;;5044294;28;20599;-78
2023/10/16 11:01:26;;;;;;;4.27;2.20;;;11.80;99.90;;;;;;5051435;28;20207;-78
2023/10/16 11:03:55;;;;;;;3.43;1.90;;;11.80;99.90;;;;;;5052432;28;20696;-78
2023/10/16 11:06:39;;;;;;;2.73;1.20;;;11.60;99.90;;;;;;5034795;28;20203;-78
2023/10/16 11:09:12;;;;;;;2.30;1.40;;;11.20;99.90;;;;;;5032212;28;20600;-79
2023/10/16 11:11:40;;;;;;;4.17;1.60;;;11.00;99.90;;;;;;5051689;28;20698;-78
2023/10/16 11:14:08;;;;;;;7.67;2.03;;;11.00;99.90;;;;;;5037396;28;20590;-78
2023/10/16 11:16:42;;;;;;;5.50;1.77;;;11.40;99.90;;;;;;5040820;28;20626;-78
2023/10/16 11:19:09;;;;;;;2.43;1.63;;;12.00;99.90;;;;;;5041440;28;20228;-78
2023/10/16 11:21:43;;;;;;;2.13;1.60;;;12.20;99.90;;;;;;5052533;28;20662;-79
2023/10/16 11:24:11;;;;;;;2.53;1.53;;;12.70;99.90;;;;;;5040363;28;20230;-78
2023/10/16 11:26:39;;;;;;;4.37;1.80;;;12.80;99.90;;;;;;5045556;28;20199;-78
2023/10/16 11:29:06;;;;;;;3.37;1.60;;;12.50;99.90;;;;;;5051032;28;20833;-78
2023/10/16 11:31:40;;;;;;;3.57;2.03;;;12.30;99.90;;;;;;5047158;28;20215;-79
2023/10/16 11:34:07;;;;;;;3.70;2.00;;;11.90;99.90;;;;;;5055920;28;20229;-78
2023/10/16 11:36:35;;;;;;;2.10;1.40;;;11.80;99.90;;;;;;5053298;28;20241;-78
2023/10/16 11:39:06;;;;;;;1.67;0.90;;;12.40;99.90;;;;;;5035914;28;20227;-78
2023/10/16 11:41:33;;;;;;;1.83;0.80;;;11.80;99.90;;;;;;5046106;28;20219;-78
2023/10/16 11:44:05;;;;;;;3.83;0.80;;;11.60;99.90;;;;;;5049914;28;20202;-78
2023/10/16 11:46:34;;;;;;;1.27;0.63;;;11.70;99.90;;;;;;5055061;28;20217;-78
2023/10/16 11:51:45;;;;;;;2.87;0.73;;;12.50;99.90;;;;;;5040253;28;20206;-78
2023/10/16 11:54:19;;;;;;;2.60;0.80;;;12.90;99.90;;;;;;5048445;28;20239;-78
2023/10/16 11:56:47;;;;;;;0.93;0.70;;;13.20;99.90;;;;;;5048009;28;20657;-78
2023/10/16 11:59:15;;;;;;;2.47;0.93;;;13.20;99.90;;;;;;5055222;28;20250;-78
2023/10/16 12:01:43;;;;;;;3.45;1.20;;;13.10;99.90;;;;;;5047148;28;20207;-78
2023/10/16 12:04:11;;;;;;;2.43;1.70;;;13.30;99.90;;;;;;5055643;28;20195;-78
2023/10/16 12:06:39;;;;;;;2.63;1.50;;;12.90;99.90;;;;;;5054774;28;20215;-78
2023/10/16 12:09:06;;;;;;;2.97;1.53;;;13.00;99.90;;;;;;5054979;28;20219;-78
2023/10/16 12:11:38;;;;;;;3.90;2.00;;;12.80;99.90;;;;;;5047399;28;20211;-78
2023/10/16 12:14:07;;;;;;;2.90;1.70;;;13.40;99.90;;;;;;5055408;28;20719;-79
2023/10/16 12:16:34;;;;;;;2.40;1.60;;;14.10;99.90;;;;;;5054735;28;20222;-79
2023/10/16 12:19:01;;;;;;;2.17;1.50;;;14.10;99.90;;;;;;5054275;28;20229;-78
2023/10/16 12:21:28;;;;;;;2.53;1.50;;;14.50;99.90;;;;;;5055247;28;20238;-78
2023/10/16 12:23:57;;;;;;;3.63;1.90;;;13.60;99.90;;;;;;5053886;28;20199;-78
2023/10/16 12:26:24;;;;;;;4.30;1.63;;;13.30;99.90;;;;;;5054999;28;20202;-78
2023/10/16 12:28:53;;;;;;;4.33;1.53;;;14.00;99.90;;;;;;5055154;28;20218;-78
2023/10/16 12:31:19;;;;;;;3.73;1.40;;;14.40;99.90;;;;;;5046944;28;20580;-78
2023/10/16 12:33:47;;;;;;;3.47;1.60;;;14.50;99.90;;;;;;5054373;28;20223;-77
2023/10/16 12:36:14;;;;;;;5.00;1.40;;;13.80;99.90;;;;;;5050320;28;20626;-78
2023/10/16 12:38:44;;;;;;;3.72;1.30;;;13.30;99.90;;;;;;5055080;28;20219;-78
2023/10/16 12:41:12;;;;;;;3.27;1.77;;;13.10;99.90;;;;;;5048488;28;20674;-78
2023/10/16 12:43:40;;;;;;;3.27;1.00;;;12.70;99.90;;;;;;5049193;28;20302;-78
2023/10/16 12:46:08;;;;;;;4.63;1.33;;;11.90;99.90;;;;;;5042673;28;20207;-78
2023/10/16 12:48:35;;;;;;;3.97;1.10;;;11.60;99.90;;;;;;5040180;28;20223;-78
2023/10/16 12:51:07;;;;;;;1.80;1.37;;;11.50;99.90;;;;;;5053216;28;20665;-78
2023/10/16 12:53:34;;;;;;;2.87;1.60;;;11.50;99.90;;;;;;5053408;28;22002;-78
2023/10/16 12:56:05;;;;;;;2.43;1.50;;;11.50;99.90;;;;;;5043969;28;20569;-78
2023/10/16 12:58:33;;;;;;;2.60;1.47;;;11.60;99.90;;;;;;5051442;28;20199;-78
2023/10/16 13:01:00;;;;;;;2.33;1.73;;;11.50;99.90;;;;;;5048840;28;20203;-78
2023/10/16 13:03:33;;;;;;;4.17;1.40;;;11.60;99.90;;;;;;5049467;28;20206;-78
2023/10/16 13:06:00;;;;;;;4.67;2.37;;;11.60;99.90;;;;;;5048030;28;20226;-79
2023/10/16 13:08:27;;;;;;;6.63;3.50;;;11.70;99.90;;;;;;5045528;28;20210;-78
2023/10/16 13:10:55;;;;;;;3.23;1.57;;;11.50;99.90;;;;;;5052737;28;20210;-78
2023/10/16 13:13:22;;;;;;;7.00;2.30;;;11.40;99.90;;;;;;5052966;28;20203;-79
2023/10/16 13:15:52;;;;;;;1.97;1.77;;;11.50;99.90;;;;;;5044610;28;20218;-78
2023/10/16 13:18:26;;;;;;;5.60;2.20;;;11.40;99.90;;;;;;5050608;28;20203;-78
2023/10/16 13:21:04;;;;;;;5.03;2.50;;;11.50;99.90;;;;;;5049293;28;20689;-78
2023/10/16 13:23:33;;;;;;;1.57;1.47;;;11.50;99.90;;;;;;5040496;28;20195;-77
2023/10/16 13:26:00;;;;;;;6.77;2.70;;;11.50;99.90;;;;;;5046198;28;20301;-78
2023/10/16 13:28:26;;;;;;;2.17;1.70;;;11.40;99.90;;;;;;5051667;28;20199;-79
2023/10/16 13:30:53;;;;;;;3.57;1.63;;;11.30;99.90;;;;;;5041788;28;20214;-79
2023/10/16 13:33:20;;;;;;;4.20;1.40;;;11.30;99.90;;;;;;5052411;28;20199;-79
2023/10/16 13:35:47;;;;;;;1.73;1.10;;;11.30;99.90;;;;;;5040181;28;20258;-79
2023/10/16 13:38:18;;;;;;;4.27;1.40;;;11.30;99.90;;;;;;5055462;28;20207;-79
2023/10/16 13:40:46;;;;;;;7.57;1.60;;;11.40;99.90;;;;;;5043411;28;20230;-80
2023/10/16 13:43:17;;;;;;;2.47;1.60;;;11.70;99.90;;;;;;5051141;28;20214;-80
2023/10/16 13:45:44;;;;;;;1.63;1.50;;;11.80;99.90;;;;;;5053219;28;20731;-79
2023/10/16 13:48:11;;;;;;;2.27;1.67;;;11.90;99.90;;;;;;5053293;28;20222;-79
2023/10/16 13:50:40;;;;;;;4.27;2.70;;;11.90;99.90;;;;;;5049911;28;20234;-80
2023/10/16 13:53:08;;;;;;;2.00;1.40;;;12.10;99.90;;;;;;5050622;28;20294;-80
2023/10/16 13:55:36;;;;;;;3.13;2.20;;;11.80;99.90;;;;;;5052772;28;20222;-79
2023/10/16 13:58:05;;;;;;;7.67;3.40;;;11.80;99.90;;;;;;5042031;28;20211;-79
2023/10/16 14:00:35;;;;;;;6.00;2.63;;;11.80;99.90;;;;;;5055086;28;20223;-79
2023/10/16 14:03:06;;;;;;;3.87;2.37;;;11.80;99.90;;;;;;5041245;28;20654;-80
2023/10/16 14:05:40;;;;;;;3.00;1.50;;;11.80;99.90;;;;;;5052339;28;20206;-79
2023/10/16 14:08:09;;;;;;;3.60;1.90;;;11.70;99.90;;;;;;5047864;28;20199;-79
2023/10/16 14:10:45;;;;;;;5.43;1.90;;;11.70;99.90;;;;;;5043616;28;20752;-79
2023/10/16 14:13:19;;;;;;;3.37;2.40;;;11.70;99.90;;;;;;5047076;28;20571;-79
2023/10/16 14:15:47;;;;;;;9.37;4.60;;;11.60;99.90;;;;;;5053203;28;20233;-79
2023/10/16 14:18:20;;;;;;;4.80;2.03;;;11.60;99.90;;;;;;5054199;28;20209;-78
2023/10/16 14:20:48;;;;;;;3.47;1.90;;;10.30;99.90;;;;;;5046274;28;20891;-78
2023/10/16 14:23:15;;;;;;;6.60;2.60;;;11.60;99.90;;;;;;5053534;28;20584;-78
2023/10/16 14:25:47;;;;;;;2.77;1.47;;;11.60;99.90;;;;;;5050395;28;20684;-80
2023/10/16 14:28:27;;;;;;;2.70;1.70;;;11.60;99.90;;;;;;5048086;28;20199;-79
2023/10/16 14:30:56;;;;;;;1.63;1.10;;;11.60;99.90;;;;;;5042272;28;20656;-79
2023/10/16 14:33:24;;;;;;;1.87;1.37;;;11.60;99.90;;;;;;5055275;28;20669;-79
2023/10/16 14:35:51;;;;;;;5.60;1.40;;;11.60;99.90;;;;;;5054168;28;20228;-79